createdAt,value
2016-09-18T00:00:09.704Z,998.86
2016-09-18T00:00:31.449Z,998.82
2016-09-18T00:01:34.009Z,998.75
2016-09-18T00:01:58.498Z,998.79
2016-09-18T00:02:20.249Z,998.81
2016-09-18T00:02:42.169Z,998.79
2016-09-18T00:03:04.932Z,998.90
2016-09-18T00:03:36.351Z,998.84
2016-09-18T00:03:58.380Z,998.74
2016-09-18T00:04:25.173Z,998.73
2016-09-18T00:04:48.309Z,998.78
2016-09-18T00:05:10.060Z,998.92
2016-09-18T00:06:04.102Z,998.75
2016-09-18T00:06:31.733Z,998.79
2016-09-18T00:06:53.486Z,998.74
2016-09-18T00:07:15.260Z,998.86
2016-09-18T00:07:42.267Z,998.83
2016-09-18T00:08:05.082Z,998.83
2016-09-18T00:08:26.841Z,998.74
2016-09-18T00:08:48.758Z,998.92
2016-09-18T00:09:10.636Z,998.83
2016-09-18T00:09:32.511Z,998.81
2016-09-18T00:09:55.375Z,998.88
2016-09-18T00:10:24.907Z,998.82
2016-09-18T00:10:47.820Z,998.75
2016-09-18T00:11:12.361Z,998.71
2016-09-18T00:11:34.245Z,998.71
2016-09-18T00:11:56.198Z,998.84
2016-09-18T00:12:17.967Z,998.82
2016-09-18T00:12:44.540Z,998.92
2016-09-18T00:13:38.754Z,998.70
2016-09-18T00:14:10.178Z,998.80
2016-09-18T00:14:33.049Z,998.73
2016-09-18T00:14:55.099Z,998.83
2016-09-18T00:15:16.892Z,998.77
2016-09-18T00:15:39.909Z,998.76
2016-09-18T00:16:01.916Z,998.79
2016-09-18T00:16:23.651Z,998.88
2016-09-18T00:16:45.394Z,998.81
2016-09-18T00:17:07.138Z,998.87
2016-09-18T00:17:28.930Z,998.87
2016-09-18T00:17:51.682Z,998.79
2016-09-18T00:18:18.226Z,998.78
2016-09-18T00:18:40.051Z,998.78
2016-09-18T00:19:03.071Z,998.76
2016-09-18T00:19:24.818Z,998.76
2016-09-18T00:19:47.595Z,998.81
2016-09-18T00:20:09.346Z,999.00
2016-09-18T00:20:32.089Z,998.93
2016-09-18T00:20:53.836Z,998.94
2016-09-18T00:21:15.583Z,998.74
2016-09-18T00:21:37.473Z,998.78
2016-09-18T00:21:59.317Z,998.97
2016-09-18T00:22:21.145Z,998.86
2016-09-18T00:23:14.169Z,998.87
2016-09-18T00:23:37.100Z,998.85
2016-09-18T00:24:03.694Z,998.74
2016-09-18T00:24:30.297Z,998.70
2016-09-18T00:24:52.079Z,998.83
2016-09-18T00:25:14.987Z,998.77
2016-09-18T00:25:36.974Z,998.71
2016-09-18T00:25:58.741Z,998.70
2016-09-18T00:26:20.514Z,998.67
2016-09-18T00:26:42.270Z,998.80
2016-09-18T00:27:04.025Z,998.83
2016-09-18T00:27:25.788Z,998.78
2016-09-18T00:27:52.316Z,998.76
2016-09-18T00:28:16.063Z,998.83
2016-09-18T00:28:37.816Z,998.81
2016-09-18T00:29:00.751Z,998.89
2016-09-18T00:29:23.717Z,998.79
2016-09-18T00:29:50.101Z,998.71
2016-09-18T00:30:13.090Z,998.78
2016-09-18T00:30:35.164Z,998.82
2016-09-18T00:31:01.778Z,998.84
2016-09-18T00:31:54.939Z,998.82
2016-09-18T00:32:17.681Z,998.76
2016-09-18T00:32:44.191Z,998.88
2016-09-18T00:33:05.968Z,998.87
2016-09-18T00:33:27.858Z,998.91
2016-09-18T00:33:49.670Z,998.85
2016-09-18T00:34:11.445Z,998.81
2016-09-18T00:34:34.204Z,998.74
2016-09-18T00:35:01.727Z,998.76
2016-09-18T00:35:25.531Z,998.84
2016-09-18T00:35:52.069Z,998.82
2016-09-18T00:36:54.643Z,998.85
2016-09-18T00:37:16.434Z,998.86
2016-09-18T00:37:40.243Z,998.76
2016-09-18T00:38:06.782Z,998.96
2016-09-18T00:38:40.572Z,998.78
2016-09-18T00:39:07.088Z,998.71
2016-09-18T00:39:29.897Z,998.86
2016-09-18T00:39:51.663Z,998.77
2016-09-18T00:40:13.417Z,998.84
2016-09-18T00:40:35.170Z,998.83
2016-09-18T00:40:57.190Z,998.69
2016-09-18T00:41:19.128Z,998.86
2016-09-18T00:42:22.449Z,998.74
2016-09-18T00:43:15.529Z,998.73
2016-09-18T00:43:43.059Z,998.74
2016-09-18T00:44:09.628Z,998.89
2016-09-18T00:45:01.861Z,998.80
2016-09-18T00:45:24.661Z,998.76
2016-09-18T00:45:47.430Z,998.76
2016-09-18T00:46:54.639Z,998.69
2016-09-18T00:47:17.496Z,998.60
2016-09-18T00:47:40.281Z,998.69
2016-09-18T00:48:02.035Z,998.69
2016-09-18T00:48:53.311Z,998.74
2016-09-18T00:49:16.393Z,998.66
2016-09-18T00:49:38.165Z,998.71
2016-09-18T00:50:41.257Z,998.76
2016-09-18T00:51:03.027Z,998.78
2016-09-18T00:51:35.295Z,998.79
2016-09-18T00:51:57.070Z,998.73
2016-09-18T00:52:18.866Z,998.76
2016-09-18T00:52:41.603Z,998.67
2016-09-18T00:53:09.116Z,998.67
2016-09-18T00:54:05.062Z,998.67
2016-09-18T00:54:31.659Z,998.67
2016-09-18T00:54:54.015Z,998.65
2016-09-18T00:55:16.841Z,998.58
2016-09-18T00:55:39.634Z,998.62
2016-09-18T00:56:10.906Z,998.82
2016-09-18T00:56:32.821Z,998.79
2016-09-18T00:56:59.366Z,998.85
2016-09-18T00:57:25.686Z,998.78
2016-09-18T00:57:52.265Z,998.60
2016-09-18T00:58:24.544Z,998.56
2016-09-18T00:58:51.467Z,998.62
2016-09-18T00:59:46.294Z,998.68
2016-09-18T01:00:42.889Z,998.65
2016-09-18T01:01:14.175Z,998.67
2016-09-18T01:01:48.204Z,998.64
2016-09-18T01:02:10.981Z,998.58
2016-09-18T01:02:32.745Z,998.60
2016-09-18T01:03:30.866Z,998.65
2016-09-18T01:04:28.848Z,998.78
2016-09-18T01:05:59.990Z,998.58
2016-09-18T01:06:51.526Z,998.69
2016-09-18T01:08:02.009Z,998.64
2016-09-18T01:09:01.929Z,998.56
2016-09-18T01:09:37.793Z,998.54
2016-09-18T01:10:00.575Z,998.58
2016-09-18T01:10:28.086Z,998.53
2016-09-18T01:10:57.171Z,998.69
2016-09-18T01:11:56.806Z,998.51
2016-09-18T01:13:30.665Z,998.53
2016-09-18T01:14:37.670Z,998.61
2016-09-18T01:15:05.200Z,998.57
2016-09-18T01:16:18.217Z,998.42
2016-09-18T01:16:42.166Z,998.63
2016-09-18T01:17:36.323Z,998.50
2016-09-18T01:18:00.086Z,998.48
2016-09-18T01:18:31.366Z,998.55
2016-09-18T01:18:53.149Z,998.58
2016-09-18T01:19:24.422Z,998.52
2016-09-18T01:20:18.501Z,998.47
2016-09-18T01:20:50.821Z,998.48
2016-09-18T01:21:19.360Z,998.65
2016-09-18T01:22:41.958Z,998.58
2016-09-18T01:23:11.036Z,998.61
2016-09-18T01:23:42.860Z,998.59
2016-09-18T01:24:04.703Z,998.62
2016-09-18T01:24:26.517Z,998.72
2016-09-18T01:25:24.950Z,998.67
2016-09-18T01:25:56.252Z,998.61
2016-09-18T01:26:22.758Z,998.63
2016-09-18T01:26:44.586Z,998.65
2016-09-18T01:27:07.516Z,998.60
2016-09-18T01:27:35.023Z,998.76
2016-09-18T01:28:01.544Z,998.57
2016-09-18T01:28:24.297Z,998.59
2016-09-18T01:28:50.918Z,998.57
2016-09-18T01:29:17.452Z,998.49
2016-09-18T01:29:39.209Z,998.64
2016-09-18T01:30:00.987Z,998.62
2016-09-18T01:30:56.063Z,998.47
2016-09-18T01:31:53.100Z,998.49
2016-09-18T01:32:19.618Z,998.56
2016-09-18T01:32:41.382Z,998.57
2016-09-18T01:33:03.148Z,998.60
2016-09-18T01:34:11.251Z,998.68
2016-09-18T01:34:34.034Z,998.56
2016-09-18T01:35:49.971Z,998.52
2016-09-18T01:36:12.818Z,998.46
2016-09-18T01:36:39.362Z,998.49
2016-09-18T01:37:02.127Z,998.48
2016-09-18T01:37:30.642Z,998.50
2016-09-18T01:37:54.396Z,998.59
2016-09-18T01:38:16.172Z,998.52
2016-09-18T01:38:42.696Z,998.63
2016-09-18T01:39:09.331Z,998.52
2016-09-18T01:39:34.040Z,998.50
2016-09-18T01:40:27.081Z,998.58
2016-09-18T01:40:48.870Z,998.49
2016-09-18T01:41:10.649Z,998.55
2016-09-18T01:41:33.429Z,998.50
2016-09-18T01:42:27.444Z,998.57
2016-09-18T01:43:20.482Z,998.57
2016-09-18T01:43:47.996Z,998.48
2016-09-18T01:44:19.320Z,998.52
2016-09-18T01:44:42.246Z,998.69
2016-09-18T01:45:08.831Z,998.64
2016-09-18T01:45:36.671Z,998.58
2016-09-18T01:46:03.583Z,998.49
2016-09-18T01:46:32.986Z,998.50
2016-09-18T01:47:40.296Z,998.53
2016-09-18T01:48:02.056Z,998.65
2016-09-18T01:48:26.757Z,998.51
2016-09-18T01:49:27.409Z,998.50
2016-09-18T01:49:53.954Z,998.47
2016-09-18T01:50:15.708Z,998.45
2016-09-18T01:51:12.584Z,998.43
2016-09-18T01:52:07.609Z,998.62
2016-09-18T01:52:29.381Z,998.56
2016-09-18T01:52:51.165Z,998.52
2016-09-18T01:53:12.910Z,998.44
2016-09-18T01:54:11.734Z,998.50
2016-09-18T01:54:38.255Z,998.47
2016-09-18T01:55:00.015Z,998.54
2016-09-18T01:55:31.285Z,998.56
2016-09-18T01:55:53.039Z,998.53
2016-09-18T01:56:14.809Z,998.59
2016-09-18T01:56:39.717Z,998.63
2016-09-18T01:57:07.225Z,998.53
2016-09-18T01:57:35.884Z,998.58
2016-09-18T01:58:46.316Z,998.45
2016-09-18T01:59:09.081Z,998.53
2016-09-18T01:59:41.225Z,998.65
2016-09-18T02:00:03.043Z,998.60
2016-09-18T02:00:29.631Z,998.70
2016-09-18T02:01:31.458Z,998.63
2016-09-18T02:02:03.608Z,998.64
2016-09-18T02:02:33.058Z,998.62
2016-09-18T02:03:09.163Z,998.42
2016-09-18T02:03:35.688Z,998.48
2016-09-18T02:04:02.200Z,998.51
2016-09-18T02:04:28.783Z,998.60
2016-09-18T02:04:55.302Z,998.49
2016-09-18T02:05:17.067Z,998.55
2016-09-18T02:06:10.115Z,998.66
2016-09-18T02:06:31.865Z,998.73
2016-09-18T02:06:56.559Z,998.59
2016-09-18T02:07:23.086Z,998.49
2016-09-18T02:07:44.872Z,998.60
2016-09-18T02:08:06.706Z,998.52
2016-09-18T02:08:30.440Z,998.55
2016-09-18T02:08:56.994Z,998.60
2016-09-18T02:09:23.509Z,998.60
2016-09-18T02:09:50.015Z,998.56
2016-09-18T02:10:11.765Z,998.58
2016-09-18T02:10:33.538Z,998.73
2016-09-18T02:10:57.298Z,998.64
2016-09-18T02:11:20.070Z,998.63
2016-09-18T02:12:18.840Z,998.45
2016-09-18T02:12:40.591Z,998.47
2016-09-18T02:13:02.377Z,998.47
2016-09-18T02:13:56.230Z,998.59
2016-09-18T02:14:22.749Z,998.48
2016-09-18T02:14:44.517Z,998.54
2016-09-18T02:15:09.042Z,998.51
2016-09-18T02:15:30.811Z,998.43
2016-09-18T02:16:26.926Z,998.44
2016-09-18T02:16:52.601Z,998.49
2016-09-18T02:17:14.356Z,998.52
2016-09-18T02:17:36.109Z,998.56
2016-09-18T02:17:57.861Z,998.45
2016-09-18T02:18:19.692Z,998.50
2016-09-18T02:18:46.508Z,998.54
2016-09-18T02:19:08.380Z,998.52
2016-09-18T02:19:30.245Z,998.41
2016-09-18T02:19:52.984Z,998.46
2016-09-18T02:20:19.509Z,998.51
2016-09-18T02:20:45.256Z,998.48
2016-09-18T02:21:07.999Z,998.33
2016-09-18T02:21:29.880Z,998.40
2016-09-18T02:21:52.760Z,998.43
2016-09-18T02:22:24.229Z,998.56
2016-09-18T02:22:55.628Z,998.43
2016-09-18T02:23:17.490Z,998.54
2016-09-18T02:23:39.327Z,998.46
2016-09-18T02:24:06.848Z,998.48
2016-09-18T02:24:33.349Z,998.38
2016-09-18T02:24:56.104Z,998.39
2016-09-18T02:25:17.874Z,998.39
2016-09-18T02:25:41.734Z,998.50
2016-09-18T02:26:08.274Z,998.47
2016-09-18T02:26:34.792Z,998.47
2016-09-18T02:26:56.543Z,998.39
2016-09-18T02:28:24.642Z,998.52
2016-09-18T02:28:52.156Z,998.39
2016-09-18T02:29:14.933Z,998.43
2016-09-18T02:29:41.480Z,998.37
2016-09-18T02:30:58.383Z,998.49
2016-09-18T02:31:21.147Z,998.42
2016-09-18T02:31:44.244Z,998.44
2016-09-18T02:32:10.684Z,998.47
2016-09-18T02:32:32.421Z,998.50
2016-09-18T02:32:56.950Z,998.46
2016-09-18T02:33:21.740Z,998.54
2016-09-18T02:33:43.534Z,998.57
2016-09-18T02:34:05.291Z,998.39
2016-09-18T02:34:27.042Z,998.56
2016-09-18T02:34:48.831Z,998.55
2016-09-18T02:35:38.082Z,998.36
2016-09-18T02:35:59.845Z,998.34
2016-09-18T02:36:21.621Z,998.43
2016-09-18T02:37:14.684Z,998.44
2016-09-18T02:37:45.980Z,998.44
2016-09-18T02:38:09.862Z,998.43
2016-09-18T02:38:31.771Z,998.44
2016-09-18T02:39:34.339Z,998.48
2016-09-18T02:40:27.446Z,998.48
2016-09-18T02:40:49.222Z,998.43
2016-09-18T02:41:11.000Z,998.37
2016-09-18T02:41:32.758Z,998.41
2016-09-18T02:41:59.278Z,998.30
2016-09-18T02:42:22.127Z,998.39
2016-09-18T02:43:17.211Z,998.36
2016-09-18T02:43:40.121Z,998.49
2016-09-18T02:44:02.070Z,998.44
2016-09-18T02:44:28.680Z,998.45
2016-09-18T02:44:50.441Z,998.48
2016-09-18T02:45:12.181Z,998.46
2016-09-18T02:45:33.912Z,998.37
2016-09-18T02:46:00.431Z,998.38
2016-09-18T02:46:22.196Z,998.34
2016-09-18T02:46:44.962Z,998.39
2016-09-18T02:47:06.706Z,998.43
2016-09-18T02:47:28.448Z,998.47
2016-09-18T02:47:50.223Z,998.40
2016-09-18T02:48:12.137Z,998.52
2016-09-18T02:48:33.886Z,998.54
2016-09-18T02:48:55.675Z,998.55
2016-09-18T02:49:17.401Z,998.54
2016-09-18T02:49:39.187Z,998.48
2016-09-18T02:50:01.051Z,998.47
2016-09-18T02:50:52.008Z,998.42
2016-09-18T02:51:21.255Z,998.37
2016-09-18T02:51:43.068Z,998.36
2016-09-18T02:53:05.109Z,998.30
2016-09-18T02:53:26.843Z,998.25
2016-09-18T02:53:48.777Z,998.35
2016-09-18T02:54:10.706Z,998.52
2016-09-18T02:54:32.677Z,998.36
2016-09-18T02:55:01.813Z,998.30
2016-09-18T02:55:23.586Z,998.32
2016-09-18T02:55:45.337Z,998.30
2016-09-18T02:56:43.136Z,998.31
2016-09-18T02:57:37.161Z,998.24
2016-09-18T02:58:26.713Z,998.41
2016-09-18T02:58:48.869Z,998.36
2016-09-18T02:59:15.709Z,998.17
2016-09-18T03:00:06.706Z,998.25
2016-09-18T03:00:37.980Z,998.26
2016-09-18T03:01:00.735Z,998.26
2016-09-18T03:01:53.874Z,998.20
2016-09-18T03:02:20.419Z,998.15
2016-09-18T03:03:25.625Z,998.22
2016-09-18T03:03:47.414Z,998.17
2016-09-18T03:04:15.778Z,998.26
2016-09-18T03:04:40.111Z,998.17
2016-09-18T03:05:06.614Z,998.26
2016-09-18T03:05:30.361Z,998.22
2016-09-18T03:05:54.326Z,998.10
2016-09-18T03:06:16.101Z,998.20
2016-09-18T03:06:37.843Z,998.34
2016-09-18T03:07:00.649Z,998.13
2016-09-18T03:07:27.171Z,998.06
2016-09-18T03:07:48.914Z,998.23
2016-09-18T03:08:10.661Z,998.18
2016-09-18T03:08:32.409Z,998.08
2016-09-18T03:08:54.182Z,998.03
2016-09-18T03:09:15.925Z,998.05
2016-09-18T03:09:37.657Z,998.11
2016-09-18T03:09:59.422Z,998.14
2016-09-18T03:10:22.328Z,998.11
2016-09-18T03:11:22.060Z,998.10
2016-09-18T03:11:43.897Z,998.17
2016-09-18T03:12:05.942Z,998.22
2016-09-18T03:12:27.900Z,998.14
2016-09-18T03:12:49.660Z,998.00
2016-09-18T03:13:47.452Z,998.11
2016-09-18T03:14:11.174Z,998.08
2016-09-18T03:14:33.948Z,998.08
2016-09-18T03:14:55.697Z,998.06
2016-09-18T03:15:17.468Z,998.07
2016-09-18T03:16:06.754Z,998.08
2016-09-18T03:16:33.269Z,998.05
2016-09-18T03:17:27.330Z,998.27
2016-09-18T03:17:49.087Z,998.23
2016-09-18T03:18:10.851Z,998.14
2016-09-18T03:18:42.412Z,997.97
2016-09-18T03:19:04.467Z,998.07
2016-09-18T03:19:26.415Z,998.15
2016-09-18T03:20:26.316Z,998.07
2016-09-18T03:20:48.063Z,997.99
2016-09-18T03:21:10.835Z,998.08
2016-09-18T03:21:33.676Z,998.03
2016-09-18T03:21:56.643Z,998.11
2016-09-18T03:22:19.545Z,998.06
2016-09-18T03:22:41.452Z,998.10
2016-09-18T03:23:04.473Z,998.19
2016-09-18T03:23:26.220Z,998.11
2016-09-18T03:23:47.987Z,998.12
2016-09-18T03:24:09.749Z,998.09
2016-09-18T03:24:32.478Z,998.09
2016-09-18T03:24:55.247Z,998.04
2016-09-18T03:25:21.750Z,997.99
2016-09-18T03:25:43.503Z,998.15
2016-09-18T03:26:05.259Z,998.23
2016-09-18T03:26:26.991Z,998.15
2016-09-18T03:26:54.505Z,998.12
2016-09-18T03:27:17.270Z,997.97
2016-09-18T03:27:39.024Z,998.07
2016-09-18T03:28:27.302Z,998.10
2016-09-18T03:28:50.070Z,998.10
2016-09-18T03:29:16.604Z,998.03
2016-09-18T03:31:24.824Z,998.10
2016-09-18T03:32:00.758Z,998.24
2016-09-18T03:32:33.145Z,998.11
2016-09-18T03:34:13.433Z,998.03
2016-09-18T03:34:40.368Z,998.11
2016-09-18T03:35:11.718Z,998.09
2016-09-18T03:36:15.237Z,998.08
2016-09-18T03:36:41.874Z,998.14
2016-09-18T03:38:34.866Z,998.15
2016-09-18T03:39:28.160Z,998.12
2016-09-18T03:40:27.862Z,998.30
2016-09-18T03:40:50.691Z,998.25
2016-09-18T03:41:43.798Z,998.07
2016-09-18T03:42:09.299Z,998.13
2016-09-18T03:42:35.827Z,998.24
2016-09-18T03:43:10.009Z,998.19
2016-09-18T03:43:36.533Z,998.15
2016-09-18T03:43:59.388Z,998.13
2016-09-18T03:45:45.745Z,998.14
2016-09-18T03:46:16.883Z,998.15
2016-09-18T03:46:45.990Z,998.23
2016-09-18T03:47:55.216Z,998.07
2016-09-18T03:48:26.537Z,998.10
2016-09-18T03:48:53.430Z,998.10
2016-09-18T03:49:25.827Z,998.10
2016-09-18T03:51:01.094Z,998.15
2016-09-18T03:51:24.876Z,998.05
2016-09-18T03:51:54.185Z,998.04
2016-09-18T03:52:16.995Z,998.06
2016-09-18T03:52:47.365Z,998.11
2016-09-18T03:53:14.003Z,998.12
2016-09-18T03:53:35.763Z,998.03
2016-09-18T03:54:02.262Z,998.01
2016-09-18T03:54:24.009Z,998.02
2016-09-18T03:54:45.781Z,998.07
2016-09-18T03:55:34.057Z,998.06
2016-09-18T03:55:55.872Z,998.11
2016-09-18T03:56:17.641Z,998.11
2016-09-18T03:56:40.402Z,998.13
2016-09-18T03:57:11.679Z,998.08
2016-09-18T03:57:38.197Z,998.08
2016-09-18T03:57:59.973Z,998.13
2016-09-18T03:58:56.969Z,997.98
2016-09-18T03:59:27.199Z,997.95
2016-09-18T03:59:49.993Z,997.99
2016-09-18T04:00:11.737Z,998.03
2016-09-18T04:01:16.143Z,997.92
2016-09-18T04:03:03.411Z,998.02
2016-09-18T04:03:26.204Z,998.12
2016-09-18T04:03:52.729Z,998.10
2016-09-18T04:04:16.480Z,997.99
2016-09-18T04:04:43.071Z,998.13
2016-09-18T04:05:04.988Z,997.96
2016-09-18T04:05:29.373Z,998.01
2016-09-18T04:05:51.135Z,998.08
2016-09-18T04:06:12.896Z,998.05
2016-09-18T04:06:39.420Z,997.97
2016-09-18T04:07:01.212Z,998.02
2016-09-18T04:07:22.963Z,997.98
2016-09-18T04:07:44.738Z,998.03
2016-09-18T04:08:09.180Z,998.02
2016-09-18T04:09:25.113Z,997.97
2016-09-18T04:09:46.863Z,998.02
2016-09-18T04:10:09.705Z,998.00
2016-09-18T04:10:31.673Z,997.97
2016-09-18T04:10:53.433Z,997.96
2016-09-18T04:11:15.276Z,998.00
2016-09-18T04:11:37.141Z,998.07
2016-09-18T04:12:56.691Z,998.05
2016-09-18T04:13:24.220Z,998.08
2016-09-18T04:13:46.969Z,998.05
2016-09-18T04:14:08.710Z,998.12
2016-09-18T04:14:31.481Z,998.10
2016-09-18T04:15:29.164Z,998.00
2016-09-18T04:15:50.920Z,998.02
2016-09-18T04:16:18.259Z,998.09
2016-09-18T04:17:16.912Z,998.03
2016-09-18T04:18:42.198Z,997.92
2016-09-18T04:19:31.807Z,997.93
2016-09-18T04:19:54.566Z,997.98
2016-09-18T04:20:18.341Z,998.03
2016-09-18T04:20:44.877Z,998.02
2016-09-18T04:21:07.641Z,998.04
2016-09-18T04:21:34.152Z,998.10
2016-09-18T04:22:01.676Z,998.06
2016-09-18T04:22:23.443Z,998.11
2016-09-18T04:22:47.266Z,998.11
2016-09-18T04:23:54.470Z,998.11
2016-09-18T04:24:20.995Z,998.08
2016-09-18T04:24:42.742Z,998.10
2016-09-18T04:25:16.998Z,997.99
2016-09-18T04:25:38.864Z,998.15
2016-09-18T04:26:09.980Z,998.03
2016-09-18T04:26:59.616Z,998.00
2016-09-18T04:27:59.266Z,998.00
2016-09-18T04:29:40.365Z,998.14
2016-09-18T04:30:02.156Z,998.13
2016-09-18T04:30:25.229Z,998.04
2016-09-18T04:30:49.597Z,998.02
2016-09-18T04:31:11.427Z,998.07
2016-09-18T04:31:42.829Z,998.09
2016-09-18T04:32:04.594Z,998.02
2016-09-18T04:33:12.550Z,998.03
2016-09-18T04:33:39.056Z,998.12
2016-09-18T04:34:06.588Z,998.07
2016-09-18T04:35:10.355Z,997.97
2016-09-18T04:35:36.937Z,997.99
2016-09-18T04:35:58.704Z,998.12
2016-09-18T04:36:57.532Z,998.01
2016-09-18T04:37:19.357Z,998.00
2016-09-18T04:37:43.120Z,998.02
2016-09-18T04:38:04.931Z,998.11
2016-09-18T04:38:26.717Z,998.06
2016-09-18T04:38:49.551Z,998.09
2016-09-18T04:40:26.496Z,998.02
2016-09-18T04:40:48.806Z,998.08
2016-09-18T04:41:13.084Z,998.13
2016-09-18T04:41:34.839Z,998.09
2016-09-18T04:42:27.866Z,997.98
2016-09-18T04:42:52.525Z,998.09
2016-09-18T04:43:14.268Z,998.02
2016-09-18T04:43:36.026Z,998.05
2016-09-18T04:43:59.795Z,998.08
2016-09-18T04:44:48.083Z,997.99
2016-09-18T04:45:49.891Z,998.12
2016-09-18T04:46:15.314Z,998.10
2016-09-18T04:46:37.094Z,998.04
2016-09-18T04:46:58.857Z,998.08
2016-09-18T04:47:25.376Z,998.08
2016-09-18T04:47:54.697Z,998.12
2016-09-18T04:48:16.451Z,998.15
2016-09-18T04:48:38.196Z,998.18
2016-09-18T04:50:49.350Z,998.04
2016-09-18T04:51:12.281Z,998.13
2016-09-18T04:51:38.797Z,998.09
2016-09-18T04:52:37.238Z,998.07
2016-09-18T04:53:01.607Z,998.13
2016-09-18T04:53:33.738Z,998.13
2016-09-18T04:54:26.777Z,998.11
2016-09-18T04:54:50.528Z,998.11
2016-09-18T04:55:40.803Z,998.16
2016-09-18T04:56:02.553Z,998.05
2016-09-18T04:56:31.968Z,998.15
2016-09-18T04:56:53.731Z,998.18
2016-09-18T04:57:16.470Z,998.08
2016-09-18T04:58:23.747Z,998.17
2016-09-18T04:58:46.627Z,998.12
2016-09-18T04:59:53.069Z,998.18
2016-09-18T05:00:57.372Z,998.20
2016-09-18T05:01:23.973Z,998.20
2016-09-18T05:01:47.961Z,998.10
2016-09-18T05:02:21.235Z,998.15
2016-09-18T05:02:49.584Z,998.18
2016-09-18T05:03:16.121Z,998.18
2016-09-18T05:05:19.834Z,998.18
2016-09-18T05:05:49.005Z,998.14
2016-09-18T05:06:10.716Z,998.14
2016-09-18T05:06:41.994Z,998.14
2016-09-18T05:07:05.727Z,998.04
2016-09-18T05:07:31.427Z,998.08
2016-09-18T05:07:53.216Z,998.12
2016-09-18T05:08:15.975Z,998.22
2016-09-18T05:08:47.269Z,998.18
2016-09-18T05:09:13.782Z,998.11
2016-09-18T05:09:40.317Z,998.23
2016-09-18T05:10:02.051Z,998.13
2016-09-18T05:10:23.783Z,998.14
2016-09-18T05:10:45.510Z,998.14
2016-09-18T05:11:08.275Z,998.18
2016-09-18T05:11:30.016Z,998.29
2016-09-18T05:11:51.751Z,998.16
2016-09-18T05:12:13.505Z,998.19
2016-09-18T05:12:35.360Z,998.20
2016-09-18T05:12:57.101Z,998.30
2016-09-18T05:13:18.835Z,998.16
2016-09-18T05:13:40.563Z,998.24
2016-09-18T05:14:02.307Z,998.17
2016-09-18T05:14:24.038Z,998.23
2016-09-18T05:14:45.798Z,998.19
2016-09-18T05:15:07.556Z,998.28
2016-09-18T05:15:29.295Z,998.21
2016-09-18T05:15:51.024Z,998.22
2016-09-18T05:16:12.756Z,998.13
2016-09-18T05:16:34.499Z,998.15
2016-09-18T05:16:56.378Z,998.18
2016-09-18T05:17:18.119Z,998.18
2016-09-18T05:17:39.865Z,998.13
2016-09-18T05:18:01.594Z,998.17
2016-09-18T05:18:23.328Z,998.31
2016-09-18T05:18:45.056Z,998.38
2016-09-18T05:19:06.803Z,998.34
2016-09-18T05:19:28.555Z,998.19
2016-09-18T05:19:50.285Z,998.19
2016-09-18T05:20:12.022Z,998.18
2016-09-18T05:20:33.763Z,998.22
2016-09-18T05:20:55.495Z,998.22
2016-09-18T05:21:17.274Z,998.16
2016-09-18T05:21:38.998Z,998.20
2016-09-18T05:22:00.727Z,998.16
2016-09-18T05:22:22.457Z,998.25
2016-09-18T05:22:44.182Z,998.27
2016-09-18T05:23:08.867Z,998.20
2016-09-18T05:23:30.458Z,998.22
2016-09-18T05:23:52.194Z,998.31
2016-09-18T05:24:13.942Z,998.35
2016-09-18T05:24:35.795Z,998.39
2016-09-18T05:24:57.532Z,998.28
2016-09-18T05:25:19.261Z,998.17
2016-09-18T05:25:41.002Z,998.22
2016-09-18T05:26:02.746Z,998.24
2016-09-18T05:26:24.471Z,998.25
2016-09-18T05:26:46.189Z,998.29
2016-09-18T05:27:07.929Z,998.25
2016-09-18T05:27:29.651Z,998.26
2016-09-18T05:27:51.472Z,998.27
2016-09-18T05:28:13.206Z,998.28
2016-09-18T05:28:34.934Z,998.29
2016-09-18T05:28:56.663Z,998.27
2016-09-18T05:29:18.406Z,998.25
2016-09-18T05:29:40.157Z,998.36
2016-09-18T05:30:01.881Z,998.33
2016-09-18T05:30:23.903Z,998.41
2016-09-18T05:30:45.550Z,998.38
2016-09-18T05:31:07.289Z,998.34
2016-09-18T05:31:29.021Z,998.35
2016-09-18T05:31:50.775Z,998.35
2016-09-18T05:32:12.621Z,998.35
2016-09-18T05:32:34.349Z,998.40
2016-09-18T05:32:56.080Z,998.38
2016-09-18T05:33:17.811Z,998.40
2016-09-18T05:33:39.552Z,998.40
2016-09-18T05:34:01.296Z,998.37
2016-09-18T05:34:23.031Z,998.36
2016-09-18T05:34:44.768Z,998.37
2016-09-18T05:35:06.509Z,998.34
2016-09-18T05:35:28.243Z,998.38
2016-09-18T05:35:49.983Z,998.37
2016-09-18T05:36:11.703Z,998.32
2016-09-18T05:36:33.438Z,998.35
2016-09-18T05:36:55.172Z,998.36
2016-09-18T05:37:16.903Z,998.31
2016-09-18T05:37:38.633Z,998.33
2016-09-18T05:38:00.374Z,998.32
2016-09-18T05:38:22.116Z,998.34
2016-09-18T05:38:43.860Z,998.35
2016-09-18T05:39:05.683Z,998.37
2016-09-18T05:39:27.504Z,998.40
2016-09-18T05:39:49.222Z,998.32
2016-09-18T05:40:10.950Z,998.31
2016-09-18T05:40:32.685Z,998.34
2016-09-18T05:40:54.432Z,998.32
2016-09-18T05:41:16.150Z,998.37
2016-09-18T05:41:37.888Z,998.46
2016-09-18T05:41:59.615Z,998.37
2016-09-18T05:42:21.343Z,998.28
2016-09-18T05:42:43.107Z,998.34
2016-09-18T05:43:09.603Z,998.27
2016-09-18T05:43:31.351Z,998.35
2016-09-18T05:43:53.075Z,998.30
2016-09-18T05:44:14.809Z,998.28
2016-09-18T05:44:36.569Z,998.35
2016-09-18T05:44:58.306Z,998.24
2016-09-18T05:45:20.036Z,998.30
2016-09-18T05:45:41.773Z,998.34
2016-09-18T05:46:03.497Z,998.37
2016-09-18T05:46:25.226Z,998.36
2016-09-18T05:46:46.967Z,998.36
2016-09-18T05:47:08.765Z,998.30
2016-09-18T05:47:30.582Z,998.33
2016-09-18T05:47:52.330Z,998.30
2016-09-18T05:48:14.050Z,998.36
2016-09-18T05:48:35.779Z,998.42
2016-09-18T05:48:57.516Z,998.34
2016-09-18T05:49:19.252Z,998.33
2016-09-18T05:49:40.972Z,998.29
2016-09-18T05:50:02.707Z,998.35
2016-09-18T05:50:24.432Z,998.35
2016-09-18T05:50:46.157Z,998.28
2016-09-18T05:51:07.884Z,998.28
2016-09-18T05:51:29.622Z,998.34
2016-09-18T05:51:51.348Z,998.38
2016-09-18T05:52:13.083Z,998.32
2016-09-18T05:52:34.883Z,998.27
2016-09-18T05:52:56.605Z,998.37
2016-09-18T05:53:18.343Z,998.39
2016-09-18T05:53:40.086Z,998.33
2016-09-18T05:54:01.808Z,998.38
2016-09-18T05:54:23.542Z,998.34
2016-09-18T05:54:45.344Z,998.34
2016-09-18T05:55:07.076Z,998.26
2016-09-18T05:55:28.804Z,998.30
2016-09-18T05:55:50.569Z,998.30
2016-09-18T05:56:12.303Z,998.27
2016-09-18T05:56:34.035Z,998.40
2016-09-18T05:56:55.865Z,998.30
2016-09-18T05:57:17.584Z,998.29
2016-09-18T05:57:39.315Z,998.32
2016-09-18T05:58:01.047Z,998.30
2016-09-18T05:58:22.774Z,998.32
2016-09-18T05:58:44.505Z,998.27
2016-09-18T05:59:06.328Z,998.33
2016-09-18T05:59:28.060Z,998.38
2016-09-18T05:59:49.785Z,998.29
2016-09-18T06:00:11.632Z,998.26
2016-09-18T06:00:33.363Z,998.32
2016-09-18T06:00:55.094Z,998.30
2016-09-18T06:01:16.826Z,998.44
2016-09-18T06:01:38.557Z,998.38
2016-09-18T06:02:00.292Z,998.31
2016-09-18T06:02:22.013Z,998.29
2016-09-18T06:02:43.740Z,998.39
2016-09-18T06:03:05.468Z,998.33
2016-09-18T06:03:27.213Z,998.29
2016-09-18T06:03:48.947Z,998.32
2016-09-18T06:04:10.675Z,998.32
2016-09-18T06:04:32.422Z,998.30
2016-09-18T06:04:54.157Z,998.30
2016-09-18T06:05:15.887Z,998.37
2016-09-18T06:05:37.613Z,998.35
2016-09-18T06:05:59.350Z,998.33
2016-09-18T06:06:21.069Z,998.34
2016-09-18T06:06:42.800Z,998.26
2016-09-18T06:07:04.730Z,998.33
2016-09-18T06:07:26.457Z,998.29
2016-09-18T06:07:48.221Z,998.52
2016-09-18T06:08:09.941Z,998.43
2016-09-18T06:08:31.677Z,998.31
2016-09-18T06:08:53.411Z,998.36
2016-09-18T06:09:15.142Z,998.38